METAR Data
IDs: Format: Raw Decoded Include TAF

Data at: 2203 UTC 22 Sep 2020

K2P2 222155Z AUTO 19005KT 10SM CLR 19/15 A3002 RMK AO2 T01870145
K2P2 222135Z AUTO 19005KT 10SM SCT120 19/14 A3002 RMK AO2 T01870141
K2P2 222115Z AUTO 19008KT 10SM CLR 19/14 A3002 RMK AO2 T01850140
K2P2 222055Z AUTO 20008KT 10SM CLR 19/14 A3003 RMK AO2 T01900143
K2P2 222035Z AUTO 19008KT 10SM CLR 20/14 A3003 RMK AO2 T01950143
K2P2 222015Z AUTO 19007KT 10SM CLR 19/14 A3004 RMK AO2 T01920142
K2P2 221955Z AUTO 18006KT 10SM CLR 19/14 A3004 RMK AO2 T01940144
K2P2 221935Z AUTO 19006KT 10SM CLR 19/14 A3005 RMK AO2 T01890139
K2P2 221915Z AUTO 18007KT 10SM CLR 20/14 A3005 RMK AO2 T01950138
K2P2 221855Z AUTO 20005KT 10SM CLR 20/14 A3006 RMK AO2 T02030141
K2P2 221835Z AUTO 23007KT 10SM CLR 20/14 A3006 RMK AO2 T02000141
K2P2 221815Z AUTO 25006KT 10SM CLR 20/14 A3007 RMK AO2 T02010141
K2P2 221755Z AUTO 24006KT 10SM CLR 20/14 A3008 RMK AO2 6//// T01960136
K2P2 221735Z AUTO 25005KT 10SM CLR 19/14 A3008 RMK AO2 T01880135
K2P2 221715Z AUTO 23007KT 10SM CLR 18/13 A3009 RMK AO2 T01830132
K2P2 221655Z AUTO 24008KT 10SM CLR 18/13 A3010 RMK AO2 T01750132
K2P2 221635Z AUTO 23007KT 10SM CLR 17/13 A3009 RMK AO2 T01740132
K2P2 221615Z AUTO 24007KT 10SM CLR 17/13 A3010 RMK AO2 T01720131
K2P2 221555Z AUTO 25006KT 10SM CLR 17/13 A3010 RMK AO2 T01710129
K2P2 221535Z AUTO 24007KT 10SM CLR 17/13 A3010 RMK AO2 T01700131
K2P2 221515Z AUTO 24008KT 10SM CLR A3011 RMK AO2
K2P2 221455Z AUTO 23008KT 10SM CLR 17/13 A3012 RMK AO2 T01650126
K2P2 221435Z AUTO 23009KT 10SM CLR 17/13 A3012 RMK AO2 T01650126
K2P2 221415Z AUTO 22008KT 10SM CLR 16/13 A3012 RMK AO2 T01610126
K2P2 221355Z AUTO 24010KT 10SM CLR 16/12 A3011 RMK AO2 T01600121
K2P2 221335Z AUTO 25010G15KT 10SM CLR 16/12 A3011 RMK AO2 T01590120
K2P2 221315Z AUTO 25009KT 10SM CLR 16/12 A3011 RMK AO2 T01550121
K2P2 221255Z AUTO 25008KT 10SM CLR 16/13 A3011 RMK AO2 T01550125
K2P2 221235Z AUTO 25008KT 10SM CLR 15/13 A3011 RMK AO2 T01530125
K2P2 221215Z AUTO 24010KT 10SM CLR 15/13 A3011 RMK AO2 T01520127
K2P2 221155Z AUTO 24009G15KT 10SM CLR 15/13 A3012 RMK AO2 T01520128 10169 20128
K2P2 221135Z AUTO 24010G16KT 10SM CLR 15/13 A3012 RMK AO2 T01520125
K2P2 221115Z AUTO 23011G14KT 10SM CLR 16/12 A3012 RMK AO2 T01550123
K2P2 221055Z AUTO 23011G15KT 10SM CLR 16/12 A3012 RMK AO2 T01560120
K2P2 221035Z AUTO 23008G14KT 10SM CLR 16/12 A3011 RMK AO2 T01560117
K2P2 221015Z AUTO 23010G15KT 10SM CLR 16/11 A3012 RMK AO2 T01610111
K2P2 220955Z AUTO 23010G14KT 10SM CLR 16/11 A3012 RMK AO2 T01640106
K2P2 220935Z AUTO 23010G14KT 10SM CLR 17/11 A3012 RMK AO2 T01660105
K2P2 220915Z AUTO 22010G16KT 10SM CLR 17/11 A3013 RMK AO2 T01670105
K2P2 220855Z AUTO 22010KT 10SM CLR 17/10 A3013 RMK AO2 T01670103
K2P2 220835Z AUTO 22007KT 10SM CLR 17/10 A3013 RMK AO2 T01660097
K2P2 220815Z AUTO 21006KT 10SM CLR 16/10 A3014 RMK AO2 T01590097
K2P2 220755Z AUTO 20006KT 10SM CLR 14/11 A3014 RMK AO2 T01420105
K2P2 220735Z AUTO 19005KT 10SM CLR 14/11 A3014 RMK AO2 T01360110
K2P2 220715Z AUTO 19006KT 10SM CLR 13/12 A3015 RMK AO2 T01290115
K2P2 220655Z AUTO 19005KT 10SM CLR 13/12 A3015 RMK AO2 T01300118
K2P2 220635Z AUTO 19005KT 10SM SCT100 13/12 A3016 RMK AO2 T01320121
K2P2 220615Z AUTO 19006KT 10SM SCT100 14/12 A3016 RMK AO2 T01350121
K2P2 220555Z AUTO 19007KT 10SM SCT100 14/12 A3017 RMK AO2 T01350122 10148 20135 401700135
K2P2 220535Z AUTO 19005KT 10SM SCT100 14/12 A3017 RMK AO2 T01400121
K2P2 220515Z AUTO 19006KT 10SM CLR 15/12 A3017 RMK AO2 LTG DSNT SW T01450115
K2P2 220455Z AUTO 20008KT 10SM CLR 14/11 A3017 RMK AO2 LTG DSNT SW T01430114
K2P2 220435Z AUTO 21006KT 10SM CLR 14/12 A3018 RMK AO2 T01420115
K2P2 220415Z AUTO 21006KT 10SM CLR 14/12 A3018 RMK AO2 LTG DSNT SW T01420116
K2P2 220355Z AUTO 21007KT 10SM -VCTSRA SCT120 15/12 A3019 RMK AO2 LTG DSNT SW T01450116
K2P2 220335Z AUTO 20009G20KT 10SM SCT075 SCT110 14/12 A3018 RMK AO2 LTG DSNT N AND W T01410124
K2P2 220315Z AUTO 20010G15KT 10SM -RA SCT110 14/12 A3017 RMK AO2 LTG DSNT N T01410123
K2P2 220255Z AUTO 19011G20KT 10SM BKN110 15/12 A3015 RMK AO2 T01460122
K2P2 220235Z AUTO 19011G17KT 10SM CLR 15/12 A3017 RMK AO2 T01450120
K2P2 220215Z AUTO 20011G19KT 10SM CLR 14/13 A3018 RMK AO2 T01440125
K2P2 220155Z AUTO 19014G19KT 10SM CLR 15/13 A3017 RMK AO2 T01450127
K2P2 220135Z AUTO 20013G19KT 10SM CLR 14/13 A3018 RMK AO2 T01420131
K2P2 220115Z AUTO 19013G21KT 10SM CLR 14/13 A3020 RMK AO2 LTG DSNT N T01440131
K2P2 220055Z AUTO 19012G20KT 10SM CLR 15/13 A3020 RMK AO2 LTG DSNT N T01450130
K2P2 220035Z AUTO 19013G16KT 10SM CLR 15/13 A3021 RMK AO2 LTG DSNT N T01480130
K2P2 220015Z AUTO 20012G18KT 10SM CLR 15/13 A3021 RMK AO2 LTG DSNT N T01460130
K2P2 212355Z AUTO 20011G19KT 10SM CLR 14/13 A3020 RMK AO2 LTG DSNT N AND NW T01420129 10166 20140
K2P2 212335Z AUTO 20015G22KT 10SM CLR 14/13 A3019 RMK AO2 T01410128
K2P2 212315Z AUTO 19013G21KT 10SM CLR 14/13 A3018 RMK AO2 T01430128
K2P2 212255Z AUTO 19012G18KT 10SM CLR 15/13 A3018 RMK AO2 T01450126
K2P2 212235Z AUTO 19011G20KT 10SM CLR 15/13 A3019 RMK AO2 T01480126
K2P2 212215Z AUTO 19012G18KT 10SM CLR 15/13 A3020 RMK AO2 T01510129
K2P2 212155Z AUTO 19013G20KT 10SM CLR 15/13 A3021 RMK AO2 T01500126
K2P2 212135Z AUTO 19012G19KT 10SM CLR 15/13 A3021 RMK AO2 LTG DSNT NW T01540127
K2P2 212115Z AUTO 19012G19KT 10SM CLR 16/13 A3021 RMK AO2 T01570126
K2P2 212055Z AUTO 19012G20KT 10SM CLR 16/12 A3021 RMK AO2 T01580123
K2P2 212035Z AUTO 19014G19KT 10SM CLR 16/12 A3021 RMK AO2 T01600118
K2P2 212015Z AUTO 19012G21KT 160V220 10SM CLR 16/12 A3022 RMK AO2 T01560115
K2P2 211955Z AUTO 18012G21KT 10SM CLR 15/11 A3023 RMK AO2 T01520112
K2P2 211935Z AUTO 19012G22KT 10SM CLR 16/11 A3023 RMK AO2 T01600110
K2P2 211915Z AUTO 19013G20KT 10SM CLR 16/11 A3025 RMK AO2 T01630114
K2P2 211855Z AUTO 19012G21KT 10SM CLR 16/11 A3025 RMK AO2 T01630114
K2P2 211835Z AUTO 19013G20KT 10SM CLR 16/12 A3026 RMK AO2 T01630119
K2P2 211815Z AUTO 19015G22KT 10SM CLR 16/11 A3028 RMK AO2 T01600112
K2P2 211755Z AUTO 19014G19KT 150V210 10SM CLR 17/11 A3028 RMK AO2 T01680113 10170 20140
K2P2 211735Z AUTO 19015G21KT 10SM CLR 17/12 A3029 RMK AO2 T01690119
K2P2 211715Z AUTO 19015G20KT 10SM CLR 17/12 A3030 RMK AO2 T01670123
K2P2 211655Z AUTO 19015G21KT 10SM CLR 16/12 A3030 RMK AO2 T01590119
K2P2 211635Z AUTO 19012G23KT 10SM CLR 16/13 A3031 RMK AO2 T01600125
K2P2 211615Z AUTO 19013G20KT 10SM CLR 16/13 A3032 RMK AO2 T01560131
K2P2 211555Z AUTO 20014G20KT 10SM CLR 16/14 A3032 RMK AO2 T01570135
K2P2 211535Z AUTO 19013G20KT 10SM CLR 15/13 A3033 RMK AO2 T01510133
K2P2 211515Z AUTO 19013G21KT 10SM CLR 15/13 A3033 RMK AO2 T01520133
K2P2 211455Z AUTO 19012G18KT 10SM CLR 15/13 A3033 RMK AO2 T01530132
K2P2 211435Z AUTO 19012G17KT 10SM CLR 15/14 A3034 RMK AO2 T01520135
K2P2 211415Z AUTO 19012G16KT 10SM CLR 15/14 A3033 RMK AO2 T01530136
K2P2 211355Z AUTO 19011G16KT 10SM CLR 15/14 A3034 RMK AO2 T01480135
K2P2 211335Z AUTO 19010G15KT 10SM CLR 15/14 A3034 RMK AO2 T01450135
K2P2 211315Z AUTO 19011G15KT 10SM CLR 15/13 A3034 RMK AO2 T01450133
K2P2 211255Z AUTO 19008KT 10SM CLR 14/13 A3034 RMK AO2 T01400130
K2P2 211235Z AUTO 19009G16KT 10SM CLR 14/13 A3034 RMK AO2 T01400126
K2P2 211215Z AUTO 19011G15KT 10SM CLR 14/13 A3034 RMK AO2 T01410125
K2P2 211155Z AUTO 19009KT 150V210 10SM CLR 14/12 A3034 RMK AO2 T01400122 10146 20139
K2P2 211135Z AUTO 19010G16KT 10SM CLR 14/12 A3033 RMK AO2 T01400120
K2P2 211115Z AUTO 19010G17KT 10SM CLR 14/12 A3033 RMK AO2 T01400115
K2P2 211055Z AUTO 18011G16KT 150V210 10SM CLR 14/11 A3033 RMK AO2 T01400112
K2P2 211035Z AUTO 19010G18KT 10SM CLR 14/11 A3033 RMK AO2 T01400110
K2P2 211015Z AUTO 19011G18KT 10SM CLR 14/11 A3033 RMK AO2 T01410108